Flight Track Log - Related Links

Times and Time Zones

All times are in EDT time to prevent confusion due to time zone crossing. See the ASQ5877 flight status page for this flight to view local times or setup timezone preferences in your user account.

Time Position Orientation Groundspeed Altitude Reporting Facility
EDT Latitude Longitude Course Direction KTS MPH feet Rate Location/Type
Tue 06:09:56 PM 42.0000 -87.9333 10° North 176 203 1,900  Level Chicago TRACON
Tue 06:10:56 PM 42.0500 -87.9167 14° North 228 262 3,600 2,200 Climbing Chicago TRACON
Tue 06:11:56 PM 42.1167 -87.9167 360° North 260 299 6,300 2,762 Climbing Chicago TRACON
Tue 06:13:00 PM 42.2988 -87.7922 15° North  Level FlightAware Approximate
Tue 06:13:02 PM 42.2000 -87.8833 17° North 271 312 9,400  Level Chicago TRACON
Tue 06:14:00 PM 42.3822 -87.7628 10° North  Level FlightAware Approximate
Tue 06:14:11 PM 42.2708 -87.8297 29° Northeast 281 323 10,800  Level Chicago Center
Tue 06:15:00 PM 42.4641 -87.7423 10° North  Level FlightAware Approximate
Tue 06:15:13 PM 42.3789 -87.8311 359° North 341 392 11,800  Level Chicago Center
Tue 06:16:15 PM 42.4825 -87.8383 357° North 364 419 12,700 581 Climbing Chicago Center
Tue 06:17:17 PM 42.5897 -87.8444 358° North 379 436 13,000 145 Climbing Chicago Center
Tue 06:18:19 PM 42.6972 -87.8606 354° North 387 445 13,000  Level Chicago Center
Tue 06:19:21 PM 42.8044 -87.8764 354° North 387 445 13,000  Level Chicago Center
Tue 06:20:19 PM 42.9167 -87.9000 351° North 386 444 13,000  Level KMKE
Tue 06:21:19 PM 43.0333 -87.9167 354° North 391 450 13,000  Level KMKE
Tue 06:22:19 PM 43.1333 -87.8833 14° North 381 438 13,000  Level KMKE
Tue 06:23:13 PM 43.2333 -87.8500 14° North 386 444 13,000  Level KMKE
Tue 06:23:29 PM 43.2417 -87.8447 25° Northeast 387 445 13,000  Level Chicago Center
Tue 06:24:31 PM 43.3431 -87.8031 17° North 384 442 13,000  Level Chicago Center
Tue 06:25:33 PM 43.4656 -87.7889 North 382 440 13,000 -242 Level Chicago Center
Tue 06:26:35 PM 43.5708 -87.8147 350° North 386 444 12,500 -480 Descending Chicago Center
Tue 06:27:38 PM 43.6725 -87.8500 346° North 379 436 12,000 -532 Descending Chicago Center
Tue 06:28:39 PM 43.7669 -87.8825 346° North 360 414 11,400 -927 Descending Minneapolis Center
Tue 06:29:41 PM 43.8456 -87.9083 347° North 300 345 10,100 -677 Descending Minneapolis Center
Tue 06:30:43 PM 43.9289 -87.9372 346° North 269 310 10,000 -677 Descending Minneapolis Center
Tue 06:31:45 PM 43.9958 -87.9594 347° North 252 290 8,700 -1,306 Descending Minneapolis Center
Tue 06:32:47 PM 44.0636 -87.9831 346° North 251 289 7,300 -1,258 Descending Minneapolis Center
Tue 06:33:49 PM 44.1272 -88.0039 347° North 241 277 6,100 -1,584 Descending Minneapolis Center
Tue 06:34:52 PM 44.2100 -88.0303 347° North 250 288 4,000 -1,488 Descending Minneapolis Center
Tue 06:35:54 PM 44.2808 -88.0558 346° North 259 298 3,000 -484 Descending Minneapolis Center
Tue 06:36:56 PM 44.3389 -88.0856 340° North 240 276 3,000  Level Minneapolis Center

Login

Don't have an account? Register now (free) for customized features, flight alerts, and more!